createdAt,value
2018-11-01T00:01:02.318Z,98795.71
2018-11-01T00:03:31.992Z,98787.06
2018-11-01T00:06:00.549Z,98787.20
2018-11-01T00:08:29.986Z,98781.04
2018-11-01T00:11:00.050Z,98774.30
2018-11-01T00:13:29.388Z,98782.19
2018-11-01T00:15:57.950Z,98776.77
2018-11-01T00:18:28.570Z,98778.22
2018-11-01T00:20:57.918Z,98781.23
2018-11-01T00:23:27.429Z,98784.40
2018-11-01T00:25:56.671Z,98800.85
2018-11-01T00:28:25.729Z,98791.05
2018-11-01T00:30:54.634Z,98802.55
2018-11-01T00:33:23.486Z,98798.33
2018-11-01T00:35:52.844Z,98797.30
2018-11-01T00:38:22.285Z,98808.35
2018-11-01T00:40:51.803Z,98800.64
2018-11-01T00:43:21.270Z,98801.91
2018-11-01T00:45:50.699Z,98802.03
2018-11-01T00:48:21.025Z,98796.25
2018-11-01T00:50:51.155Z,98800.41
2018-11-01T00:53:20.683Z,98793.01
2018-11-01T00:55:50.715Z,98792.46
2018-11-01T00:58:21.465Z,98793.47
2018-11-01T01:00:50.793Z,98789.84
2018-11-01T01:03:21.795Z,98801.32
2018-11-01T01:05:50.670Z,98796.73
2018-11-01T01:08:19.720Z,98793.47
2018-11-01T01:10:48.800Z,98788.55
2018-11-01T01:13:17.384Z,98790.36
2018-11-01T01:15:47.365Z,98790.74
2018-11-01T01:18:17.031Z,98787.21
2018-11-01T01:20:47.396Z,98790.95
2018-11-01T01:23:16.691Z,98786.24
2018-11-01T01:25:45.481Z,98781.14
2018-11-01T01:28:14.989Z,98784.46
2018-11-01T01:30:44.006Z,98776.59
2018-11-01T01:33:12.771Z,98781.77
2018-11-01T01:35:42.384Z,98772.47
2018-11-01T01:38:11.252Z,98766.92
2018-11-01T01:40:41.641Z,98767.58
2018-11-01T01:43:11.044Z,98763.64
2018-11-01T01:45:39.692Z,98762.05
2018-11-01T01:48:08.910Z,98763.21
2018-11-01T01:50:38.127Z,98768.26
2018-11-01T01:53:07.594Z,98769.23
2018-11-01T01:55:36.980Z,98765.17
2018-11-01T01:58:06.693Z,98766.53
2018-11-01T02:00:36.218Z,98760.74
2018-11-01T02:03:04.888Z,98768.84
2018-11-01T02:05:34.137Z,98759.92
2018-11-01T02:08:02.679Z,98759.61
2018-11-01T02:10:32.532Z,98756.67
2018-11-01T02:13:01.104Z,98751.60
2018-11-01T02:15:31.839Z,98753.50
2018-11-01T02:18:00.408Z,98753.42
2018-11-01T02:20:28.967Z,98738.92
2018-11-01T02:22:57.855Z,98741.09
2018-11-01T02:25:27.119Z,98743.16
2018-11-01T02:28:01.653Z,98740.00
2018-11-01T02:30:31.201Z,98733.44
2018-11-01T02:33:00.166Z,98727.64
2018-11-01T02:35:29.605Z,98721.93
2018-11-01T02:37:58.971Z,98715.37
2018-11-01T02:40:28.241Z,98717.09
2018-11-01T02:42:58.242Z,98717.67
2018-11-01T02:45:27.514Z,98713.43
2018-11-01T02:47:56.665Z,98710.58
2018-11-01T02:50:27.106Z,98710.11
2018-11-01T02:52:56.791Z,98702.66
2018-11-01T02:55:26.800Z,98702.22
2018-11-01T02:57:56.952Z,98700.34
2018-11-01T03:00:26.375Z,98694.81
2018-11-01T03:02:56.108Z,98700.45
2018-11-01T03:05:25.364Z,98689.63
2018-11-01T03:07:54.743Z,98679.49
2018-11-01T03:10:23.946Z,98684.45
2018-11-01T03:12:52.830Z,98681.41
2018-11-01T03:15:21.638Z,98674.23
2018-11-01T03:17:50.777Z,98683.88
2018-11-01T03:20:19.864Z,98687.66
2018-11-01T03:22:49.372Z,98697.83
2018-11-01T03:25:18.294Z,98694.20
2018-11-01T03:27:47.509Z,98696.83
2018-11-01T03:30:17.763Z,98694.35
2018-11-01T03:32:47.619Z,98689.04
2018-11-01T03:35:17.004Z,98687.07
2018-11-01T03:37:46.242Z,98682.45
2018-11-01T03:40:15.882Z,98683.56
2018-11-01T03:42:45.446Z,98677.16
2018-11-01T03:45:14.176Z,98672.92
2018-11-01T03:47:43.146Z,98667.37
2018-11-01T03:50:12.840Z,98667.48
2018-11-01T03:52:42.206Z,98664.91
2018-11-01T03:55:12.608Z,98658.77
2018-11-01T03:57:42.361Z,98661.48
2018-11-01T04:00:16.468Z,98666.83
2018-11-01T04:02:46.889Z,98659.50
2018-11-01T04:05:17.164Z,98674.45
2018-11-01T04:07:47.582Z,98674.95
2018-11-01T04:10:18.409Z,98668.01
2018-11-01T04:12:48.152Z,98658.27
2018-11-01T04:15:18.560Z,98657.58
2018-11-01T04:17:48.617Z,98648.30
2018-11-01T04:20:17.178Z,98635.11
2018-11-01T04:22:47.859Z,98641.44
2018-11-01T04:25:17.190Z,98637.58
2018-11-01T04:27:47.263Z,98634.30
2018-11-01T04:30:19.766Z,98629.11
2018-11-01T04:32:48.342Z,98621.63
2018-11-01T04:35:18.959Z,98633.41
2018-11-01T04:37:47.550Z,98638.58
2018-11-01T04:40:18.617Z,98631.84
2018-11-01T04:42:48.298Z,98627.21
2018-11-01T04:45:17.210Z,98626.75
2018-11-01T04:47:46.103Z,98636.62
2018-11-01T04:50:14.882Z,98634.84
2018-11-01T04:52:44.786Z,98635.03
2018-11-01T04:55:14.162Z,98632.34
2018-11-01T04:57:42.760Z,98634.81
2018-11-01T05:00:13.780Z,98636.05
2018-11-01T05:02:44.038Z,98625.72
2018-11-01T05:05:13.362Z,98619.52
2018-11-01T05:07:43.590Z,98616.66
2018-11-01T05:10:13.587Z,98625.86
2018-11-01T05:12:43.416Z,98631.88
2018-11-01T05:15:14.043Z,98618.61
2018-11-01T05:17:43.563Z,98612.09
2018-11-01T05:20:14.918Z,98603.89
2018-11-01T05:22:44.299Z,98606.70
2018-11-01T05:25:13.581Z,98620.01
2018-11-01T05:27:43.133Z,98604.41
2018-11-01T05:30:13.847Z,98592.12
2018-11-01T05:32:45.032Z,98601.94
2018-11-01T05:35:15.051Z,98608.30
2018-11-01T05:37:43.894Z,98599.82
2018-11-01T05:40:13.033Z,98604.83
2018-11-01T05:42:43.541Z,98624.16
2018-11-01T05:45:13.527Z,98623.85
2018-11-01T05:47:43.534Z,98612.03
2018-11-01T05:50:12.428Z,98606.64
2018-11-01T05:52:42.757Z,98596.66
2018-11-01T05:55:12.739Z,98603.28
2018-11-01T05:57:44.098Z,98600.55
2018-11-01T06:00:14.562Z,98613.77
2018-11-01T06:02:47.254Z,98616.23
2018-11-01T06:05:17.853Z,98612.15
2018-11-01T06:07:50.266Z,98609.61
2018-11-01T06:10:20.064Z,98608.79
2018-11-01T06:12:49.850Z,98607.82
2018-11-01T06:15:19.095Z,98607.97
2018-11-01T06:17:49.245Z,98624.25
2018-11-01T06:20:18.351Z,98627.80
2018-11-01T06:22:47.828Z,98631.69
2018-11-01T06:25:18.020Z,98637.97
2018-11-01T06:27:47.331Z,98629.30
2018-11-01T06:30:17.908Z,98640.20
2018-11-01T06:32:48.909Z,98626.40
2018-11-01T06:35:21.495Z,98647.48
2018-11-01T06:37:50.481Z,98642.75
2018-11-01T06:40:19.758Z,98644.06
2018-11-01T06:42:49.086Z,98636.20
2018-11-01T06:45:18.608Z,98633.88
2018-11-01T06:47:48.804Z,98628.76
2018-11-01T06:50:19.396Z,98613.46
2018-11-01T06:52:49.716Z,98608.14
2018-11-01T06:55:19.232Z,98625.12
2018-11-01T06:57:48.488Z,98626.36
2018-11-01T07:00:17.442Z,98631.18
2018-11-01T07:02:46.722Z,98625.64
2018-11-01T07:05:16.125Z,98623.48
2018-11-01T07:07:45.825Z,98614.95
2018-11-01T07:10:15.740Z,98615.42
2018-11-01T07:12:45.010Z,98614.53
2018-11-01T07:15:15.033Z,98608.66
2018-11-01T07:17:43.944Z,98599.21
2018-11-01T07:20:14.305Z,98596.52
2018-11-01T07:22:44.415Z,98595.06
2018-11-01T07:25:15.676Z,98602.14
2018-11-01T07:27:44.686Z,98595.74
2018-11-01T07:30:16.721Z,98591.57
2018-11-01T07:32:46.596Z,98585.73
2018-11-01T07:35:15.590Z,98584.03
2018-11-01T07:37:44.860Z,98575.03
2018-11-01T07:40:16.436Z,98577.03
2018-11-01T07:42:45.857Z,98575.56
2018-11-01T07:45:15.589Z,98574.59
2018-11-01T07:47:45.221Z,98568.34
2018-11-01T07:50:14.301Z,98561.39
2018-11-01T07:52:43.294Z,98570.63
2018-11-01T07:55:14.123Z,98571.72
2018-11-01T07:57:42.915Z,98577.52
2018-11-01T08:00:13.956Z,98579.88
2018-11-01T08:02:43.650Z,98577.06
2018-11-01T08:05:13.312Z,98581.55
2018-11-01T08:07:42.909Z,98577.61
2018-11-01T08:10:14.684Z,98570.59
2018-11-01T08:12:44.454Z,98576.42
2018-11-01T08:15:16.386Z,98573.97
2018-11-01T08:17:44.979Z,98568.52
2018-11-01T08:20:18.918Z,98567.22
2018-11-01T08:22:56.859Z,98567.75
2018-11-01T08:25:32.033Z,98573.77
2018-11-01T08:28:01.814Z,98579.98
2018-11-01T08:30:30.596Z,98581.68
2018-11-01T08:33:08.153Z,98581.55
2018-11-01T08:35:42.725Z,98584.29
2018-11-01T08:38:15.667Z,98577.72
2018-11-01T08:40:48.182Z,98574.95
2018-11-01T08:43:20.695Z,98573.84
2018-11-01T08:45:51.601Z,98570.95
2018-11-01T08:48:29.030Z,98566.70
2018-11-01T08:51:02.678Z,98561.38
2018-11-01T08:53:37.515Z,98560.88
2018-11-01T08:56:11.558Z,98557.27
2018-11-01T08:59:10.942Z,98551.57
2018-11-01T09:02:05.232Z,98552.22
2018-11-01T09:04:50.562Z,98551.42
2018-11-01T09:07:23.108Z,98545.95
2018-11-01T09:10:09.187Z,98551.06
2018-11-01T09:13:12.249Z,98551.95
2018-11-01T09:16:12.795Z,98545.29
2018-11-01T09:18:51.750Z,98558.11
2018-11-01T09:21:21.089Z,98562.34
2018-11-01T09:23:50.938Z,98565.59
2018-11-01T09:26:19.717Z,98572.58
2018-11-01T09:28:48.871Z,98559.75
2018-11-01T09:34:14.529Z,98564.59
2018-11-01T09:36:50.163Z,98560.87
2018-11-01T09:39:35.912Z,98563.45
2018-11-01T09:42:11.149Z,98564.92
2018-11-01T09:45:07.242Z,98566.75
2018-11-01T09:48:06.172Z,98560.83
2018-11-01T09:50:39.333Z,98562.17
2018-11-01T09:53:11.931Z,98564.37
2018-11-01T09:55:55.789Z,98551.30
2018-11-01T09:58:28.878Z,98561.55
2018-11-01T10:01:06.356Z,98556.09
2018-11-01T10:03:37.962Z,98561.67
2018-11-01T10:06:12.225Z,98570.79
2018-11-01T10:08:55.244Z,98573.23
2018-11-01T10:11:36.034Z,98575.02
2018-11-01T10:14:15.853Z,98574.36
2018-11-01T10:17:04.976Z,98574.08
2018-11-01T10:20:15.474Z,98573.73
2018-11-01T10:22:56.645Z,98564.91
2018-11-01T10:25:40.569Z,98572.59
2018-11-01T10:28:09.698Z,98574.78
2018-11-01T10:30:39.176Z,98580.45
2018-11-01T10:33:09.070Z,98589.57
2018-11-01T10:35:37.873Z,98595.62
2018-11-01T10:38:07.102Z,98595.83
2018-11-01T10:40:36.576Z,98597.53
2018-11-01T10:43:05.456Z,98587.00
2018-11-01T10:45:34.369Z,98595.55
2018-11-01T10:48:04.389Z,98594.05
2018-11-01T10:50:33.804Z,98587.18
2018-11-01T10:53:03.453Z,98578.13
2018-11-01T10:55:33.625Z,98579.17
2018-11-01T10:58:02.826Z,98565.96
2018-11-01T11:00:37.113Z,98566.05
2018-11-01T11:03:05.908Z,98554.45
2018-11-01T11:05:35.157Z,98554.25
2018-11-01T11:08:04.508Z,98537.67
2018-11-01T11:10:33.433Z,98548.48
2018-11-01T11:13:03.404Z,98536.41
2018-11-01T11:15:32.026Z,98526.79
2018-11-01T11:18:01.192Z,98524.15
2018-11-01T11:20:31.026Z,98521.05
2018-11-01T11:23:00.175Z,98518.40
2018-11-01T11:25:29.287Z,98499.69
2018-11-01T11:27:58.212Z,98500.32
2018-11-01T11:30:27.985Z,98500.32
2018-11-01T11:32:56.672Z,98492.03
2018-11-01T11:35:26.630Z,98494.56
2018-11-01T11:37:55.178Z,98493.33
2018-11-01T11:40:24.641Z,98479.03
2018-11-01T11:42:54.948Z,98466.51
2018-11-01T11:45:24.104Z,98468.06
2018-11-01T11:47:53.268Z,98468.84
2018-11-01T11:50:22.388Z,98478.45
2018-11-01T11:52:51.247Z,98490.70
2018-11-01T11:55:20.342Z,98492.31
2018-11-01T11:57:49.741Z,98494.56
2018-11-01T12:00:18.348Z,98495.45
2018-11-01T12:02:47.563Z,98485.66
2018-11-01T12:05:16.422Z,98480.89
2018-11-01T12:07:45.302Z,98486.69
2018-11-01T12:10:14.663Z,98505.27
2018-11-01T12:12:43.456Z,98507.06
2018-11-01T12:15:12.609Z,98506.11
2018-11-01T12:17:41.581Z,98497.91
2018-11-01T12:20:11.960Z,98488.17
2018-11-01T12:22:41.205Z,98493.57
2018-11-01T12:25:10.778Z,98484.89
2018-11-01T12:27:39.905Z,98486.90
2018-11-01T12:30:10.345Z,98482.09
2018-11-01T12:32:39.507Z,98485.73
2018-11-01T12:35:09.181Z,98487.09
2018-11-01T12:37:38.046Z,98491.27
2018-11-01T12:40:08.240Z,98499.62
2018-11-01T12:42:37.922Z,98501.89
2018-11-01T12:45:07.576Z,98508.89
2018-11-01T12:47:36.401Z,98502.87
2018-11-01T12:50:07.815Z,98504.03
2018-11-01T12:52:36.517Z,98496.33
2018-11-01T12:55:05.584Z,98506.30
2018-11-01T12:57:34.567Z,98498.86
2018-11-01T13:00:03.779Z,98499.36
2018-11-01T13:02:32.643Z,98494.47
2018-11-01T13:05:01.904Z,98509.57
2018-11-01T13:07:31.040Z,98508.36
2018-11-01T13:10:00.732Z,98518.59
2018-11-01T13:12:29.367Z,98526.52
2018-11-01T13:15:03.780Z,98543.59
2018-11-01T13:17:45.406Z,98545.20
2018-11-01T13:20:17.552Z,98551.56
2018-11-01T13:22:46.987Z,98567.25
2018-11-01T13:25:23.156Z,98568.68
2018-11-01T13:28:01.784Z,98575.22
2018-11-01T13:30:30.736Z,98589.20
2018-11-01T13:33:01.171Z,98586.82
2018-11-01T13:35:30.880Z,98591.06
2018-11-01T13:37:59.694Z,98586.80
2018-11-01T13:40:29.766Z,98591.13
2018-11-01T13:42:58.282Z,98598.68
2018-11-01T13:45:27.085Z,98610.84
2018-11-01T13:47:56.492Z,98616.23
2018-11-01T13:50:25.797Z,98614.66
2018-11-01T13:52:54.615Z,98608.31
2018-11-01T13:55:23.747Z,98605.52
2018-11-01T13:57:52.854Z,98588.83
2018-11-01T14:00:22.091Z,98583.41
2018-11-01T14:02:51.206Z,98577.90
2018-11-01T14:05:20.193Z,98578.88
2018-11-01T14:07:49.512Z,98591.89
2018-11-01T14:10:19.198Z,98590.38
2018-11-01T14:12:47.805Z,98583.19
2018-11-01T14:15:17.255Z,98588.44
2018-11-01T14:17:46.161Z,98598.52
2018-11-01T14:20:15.211Z,98599.08
2018-11-01T14:22:44.268Z,98598.34
2018-11-01T14:25:13.780Z,98591.98
2018-11-01T14:27:43.129Z,98586.69
2018-11-01T14:30:15.388Z,98590.54
2018-11-01T14:32:44.481Z,98590.17
2018-11-01T14:35:13.476Z,98590.34
2018-11-01T14:37:42.764Z,98595.02
2018-11-01T14:40:13.148Z,98595.02
2018-11-01T14:42:42.055Z,98610.46
2018-11-01T14:45:11.470Z,98605.75
2018-11-01T14:47:40.677Z,98618.78
2018-11-01T14:50:10.010Z,98615.63
2018-11-01T14:52:39.360Z,98614.78
2018-11-01T14:55:09.492Z,98608.34
2018-11-01T14:57:38.227Z,98610.09
2018-11-01T15:00:06.434Z,98617.69
2018-11-01T15:02:35.904Z,98618.53
2018-11-01T15:05:04.951Z,98618.80
2018-11-01T15:07:33.513Z,98640.40
2018-11-01T15:10:02.867Z,98630.52
2018-11-01T15:12:31.672Z,98624.66
2018-11-01T15:15:00.700Z,98607.17
2018-11-01T15:17:30.547Z,98596.91
2018-11-01T15:19:59.373Z,98600.97
2018-11-01T15:22:29.241Z,98603.22
2018-11-01T15:24:58.703Z,98619.84
2018-11-01T15:27:27.760Z,98619.75
2018-11-01T15:29:56.704Z,98625.88
2018-11-01T15:32:29.484Z,98613.97
2018-11-01T15:34:59.420Z,98632.45
2018-11-01T15:37:28.981Z,98633.20
2018-11-01T15:39:58.394Z,98632.17
2018-11-01T15:42:27.633Z,98630.30
2018-11-01T15:44:56.460Z,98631.36
2018-11-01T15:47:25.320Z,98623.38
2018-11-01T15:49:54.720Z,98626.70
2018-11-01T15:52:24.023Z,98623.96
2018-11-01T15:54:54.240Z,98623.96
2018-11-01T15:57:24.357Z,98629.87
2018-11-01T15:59:53.348Z,98637.05
2018-11-01T16:02:23.195Z,98643.86
2018-11-01T16:04:52.595Z,98649.48
2018-11-01T16:07:21.812Z,98637.74
2018-11-01T16:09:51.073Z,98633.88
2018-11-01T16:12:20.703Z,98645.44
2018-11-01T16:14:49.864Z,98656.36
2018-11-01T16:17:19.228Z,98659.77
2018-11-01T16:19:48.489Z,98663.45
2018-11-01T16:22:16.991Z,98661.17
2018-11-01T16:24:46.317Z,98647.89
2018-11-01T16:27:15.547Z,98649.52
2018-11-01T16:29:44.994Z,98646.77
2018-11-01T16:32:13.967Z,98665.02
2018-11-01T16:34:43.022Z,98664.26
2018-11-01T16:37:12.835Z,98655.03
2018-11-01T16:39:41.630Z,98662.92
2018-11-01T16:42:10.503Z,98655.62
2018-11-01T16:44:39.980Z,98664.78
2018-11-01T16:47:09.666Z,98661.18
2018-11-01T16:49:38.980Z,98654.66
2018-11-01T16:52:08.386Z,98643.09
2018-11-01T16:54:38.532Z,98635.98
2018-11-01T16:57:07.171Z,98647.41
2018-11-01T16:59:36.456Z,98656.94
2018-11-01T17:02:10.934Z,98660.47
2018-11-01T17:04:45.609Z,98654.47
2018-11-01T17:07:49.948Z,98656.91
2018-11-01T17:10:21.893Z,98650.83
2018-11-01T17:12:58.383Z,98659.53
2018-11-01T17:15:46.411Z,98655.83
2018-11-01T17:18:16.937Z,98661.84
2018-11-01T17:20:46.385Z,98670.59
2018-11-01T17:23:36.295Z,98669.73
2018-11-01T17:26:22.619Z,98667.62
2018-11-01T17:28:53.475Z,98674.06
2018-11-01T17:31:30.749Z,98688.72
2018-11-01T17:33:59.997Z,98707.14
2018-11-01T17:36:28.532Z,98707.14
2018-11-01T17:38:58.266Z,98707.14
2018-11-01T17:41:27.443Z,98706.91
2018-11-01T17:43:56.876Z,98712.31
2018-11-01T17:46:25.816Z,98715.98
2018-11-01T17:48:54.954Z,98728.61
2018-11-01T17:51:23.884Z,98740.19
2018-11-01T17:53:53.056Z,98744.88
2018-11-01T17:56:22.827Z,98741.25
2018-11-01T17:58:52.158Z,98738.00
2018-11-01T18:01:21.362Z,98749.29
2018-11-01T18:03:51.009Z,98747.72
2018-11-01T18:06:20.665Z,98761.95
2018-11-01T18:08:50.119Z,98762.44
2018-11-01T18:11:19.242Z,98753.15
2018-11-01T18:13:48.495Z,98750.69
2018-11-01T18:16:17.938Z,98760.09
2018-11-01T18:18:46.751Z,98757.20
2018-11-01T18:21:15.334Z,98762.66
2018-11-01T18:23:44.025Z,98767.06
2018-11-01T18:26:13.685Z,98767.89
2018-11-01T18:28:42.589Z,98775.42
2018-11-01T18:31:12.722Z,98784.47
2018-11-01T18:33:42.186Z,98777.47
2018-11-01T18:36:11.218Z,98773.48
2018-11-01T18:38:39.885Z,98780.94
2018-11-01T18:41:09.221Z,98788.83
2018-11-01T18:43:38.362Z,98786.02
2018-11-01T18:46:08.328Z,98784.81
2018-11-01T18:48:37.294Z,98783.26
2018-11-01T18:51:07.342Z,98795.67
2018-11-01T18:53:37.049Z,98802.36
2018-11-01T18:56:06.522Z,98797.37
2018-11-01T18:58:35.279Z,98808.39
2018-11-01T19:01:04.195Z,98801.34
2018-11-01T19:03:33.465Z,98811.48
2018-11-01T19:06:03.502Z,98814.39
2018-11-01T19:08:32.604Z,98813.44
2018-11-01T19:11:01.492Z,98806.48
2018-11-01T19:13:31.434Z,98802.21
2018-11-01T19:15:59.991Z,98804.84
2018-11-01T19:18:29.379Z,98804.55
2018-11-01T19:20:58.971Z,98806.59
2018-11-01T19:23:27.955Z,98795.84
2018-11-01T19:25:57.438Z,98784.52
2018-11-01T19:28:26.510Z,98787.58
2018-11-01T19:30:55.637Z,98796.04
2018-11-01T19:33:25.262Z,98800.37
2018-11-01T19:35:54.293Z,98807.41
2018-11-01T19:38:23.171Z,98818.64
2018-11-01T19:40:51.781Z,98832.45
2018-11-01T19:43:21.323Z,98837.89
2018-11-01T19:45:50.713Z,98835.84
2018-11-01T19:48:19.603Z,98836.69
2018-11-01T19:50:49.208Z,98829.27
2018-11-01T19:53:18.558Z,98828.21
2018-11-01T19:55:47.819Z,98832.83
2018-11-01T19:58:17.480Z,98841.39
2018-11-01T20:00:47.302Z,98822.59
2018-11-01T20:03:16.368Z,98830.51
2018-11-01T20:05:45.960Z,98842.91
2018-11-01T20:08:16.305Z,98835.81
2018-11-01T20:10:45.501Z,98838.61
2018-11-01T20:13:14.626Z,98846.17
2018-11-01T20:15:44.176Z,98845.88
2018-11-01T20:18:13.529Z,98835.81
2018-11-01T20:20:42.858Z,98835.98
2018-11-01T20:23:12.026Z,98843.66
2018-11-01T20:25:40.770Z,98849.05
2018-11-01T20:28:09.768Z,98843.41
2018-11-01T20:30:38.943Z,98854.23
2018-11-01T20:33:07.784Z,98853.46
2018-11-01T20:35:36.399Z,98852.45
2018-11-01T20:38:05.889Z,98852.23
2018-11-01T20:40:34.818Z,98864.83
2018-11-01T20:43:03.993Z,98865.75
2018-11-01T20:45:32.916Z,98876.66
2018-11-01T20:48:01.855Z,98874.25
2018-11-01T20:50:31.005Z,98881.62
2018-11-01T20:53:00.354Z,98883.91
2018-11-01T20:55:30.675Z,98897.06
2018-11-01T20:58:00.052Z,98891.62
2018-11-01T21:00:29.098Z,98894.97
2018-11-01T21:02:58.273Z,98903.42
2018-11-01T21:05:28.313Z,98908.42
2018-11-01T21:07:57.756Z,98906.27
2018-11-01T21:10:27.535Z,98908.52
2018-11-01T21:12:59.293Z,98899.98
2018-11-01T21:15:29.776Z,98904.10
2018-11-01T21:17:58.916Z,98900.84
2018-11-01T21:20:28.205Z,98900.37
2018-11-01T21:22:58.557Z,98898.53
2018-11-01T21:25:27.568Z,98893.20
2018-11-01T21:27:56.181Z,98899.69
2018-11-01T21:30:25.248Z,98901.17
2018-11-01T21:32:54.962Z,98903.71
2018-11-01T21:35:24.113Z,98897.43
2018-11-01T21:37:53.359Z,98905.10
2018-11-01T21:40:22.649Z,98900.74
2018-11-01T21:42:51.441Z,98904.84
2018-11-01T21:45:20.480Z,98902.03
2018-11-01T21:47:50.267Z,98912.42
2018-11-01T21:50:19.526Z,98904.52
2018-11-01T21:52:48.874Z,98909.61
2018-11-01T21:55:18.050Z,98904.24
2018-11-01T21:57:47.893Z,98905.83
2018-11-01T22:00:17.109Z,98907.30
2018-11-01T22:02:46.143Z,98919.64
2018-11-01T22:05:16.497Z,98914.34
2018-11-01T22:07:45.653Z,98922.92
2018-11-01T22:10:15.068Z,98927.72
2018-11-01T22:12:43.644Z,98940.13
2018-11-01T22:15:12.792Z,98937.47
2018-11-01T22:17:43.329Z,98931.99
2018-11-01T22:20:12.454Z,98925.79
2018-11-01T22:22:42.418Z,98935.39
2018-11-01T22:25:11.925Z,98936.70
2018-11-01T22:27:41.484Z,98925.52
2018-11-01T22:30:11.385Z,98928.48
2018-11-01T22:32:40.978Z,98936.80
2018-11-01T22:35:10.627Z,98936.50
2018-11-01T22:37:40.460Z,98950.47
2018-11-01T22:40:10.221Z,98953.30
2018-11-01T22:42:39.342Z,98949.12
2018-11-01T22:45:09.708Z,98952.84
2018-11-01T22:47:39.191Z,98952.19
2018-11-01T22:50:08.804Z,98957.19
2018-11-01T22:52:37.952Z,98968.47
2018-11-01T22:55:07.994Z,98964.90
2018-11-01T22:57:36.992Z,98960.86
2018-11-01T23:00:07.432Z,98966.33
2018-11-01T23:02:36.481Z,98964.66
2018-11-01T23:05:06.141Z,98956.26
2018-11-01T23:07:35.416Z,98964.72
2018-11-01T23:10:05.296Z,98972.34
2018-11-01T23:12:34.646Z,98975.44
2018-11-01T23:15:04.016Z,98966.16
2018-11-01T23:17:33.544Z,98958.37
2018-11-01T23:20:03.035Z,98959.51
2018-11-01T23:22:32.710Z,98947.24
2018-11-01T23:25:01.936Z,98953.83
2018-11-01T23:27:31.348Z,98944.52
2018-11-01T23:30:01.417Z,98936.33
2018-11-01T23:32:30.900Z,98933.60
2018-11-01T23:35:00.038Z,98926.34
2018-11-01T23:37:33.903Z,98929.07
2018-11-01T23:40:07.738Z,98925.82
2018-11-01T23:42:41.738Z,98915.45
2018-11-01T23:45:16.943Z,98906.91
2018-11-01T23:47:51.537Z,98921.78
2018-11-01T23:50:32.244Z,98933.14
2018-11-01T23:53:06.280Z,98936.77
2018-11-01T23:55:35.230Z,98936.67
2018-11-01T23:58:04.563Z,98940.22
